createdAt,value
2022-08-12T00:01:01.441Z,76498.75
2022-08-12T00:03:52.612Z,76502.72
2022-08-12T00:06:46.906Z,76504.72
2022-08-12T00:09:38.286Z,76508.72
2022-08-12T00:12:29.654Z,76512.72
2022-08-12T00:15:22.582Z,76514.69
2022-08-12T00:18:14.105Z,76516.69
2022-08-12T00:21:05.325Z,76528.66
2022-08-12T00:23:56.948Z,76530.66
2022-08-12T00:26:49.120Z,76534.63
2022-08-12T00:29:43.639Z,76544.59
2022-08-12T00:32:40.129Z,76544.59
2022-08-12T00:35:44.308Z,76554.56
2022-08-12T00:38:36.085Z,76566.53
2022-08-12T00:41:30.685Z,76578.50
2022-08-12T00:44:06.235Z,76582.50
2022-08-12T00:46:54.975Z,76592.47
2022-08-12T00:49:30.594Z,76590.47
2022-08-12T00:52:06.451Z,76588.47
2022-08-12T00:54:49.808Z,76594.47
2022-08-12T00:57:35.480Z,76586.47
2022-08-12T01:00:18.461Z,76596.44
2022-08-12T01:02:58.499Z,76604.44
2022-08-12T01:05:51.184Z,76616.38
2022-08-12T01:08:42.529Z,76618.38
2022-08-12T01:11:29.331Z,76616.38
2022-08-12T01:14:03.129Z,76616.38
2022-08-12T01:16:36.378Z,76622.38
2022-08-12T01:19:12.920Z,76612.41
2022-08-12T01:22:18.462Z,76616.38
2022-08-12T01:25:04.095Z,76620.38
2022-08-12T01:27:40.455Z,76622.38
2022-08-12T01:30:14.626Z,76628.34
2022-08-12T01:32:50.441Z,76636.34
2022-08-12T01:35:24.393Z,76640.31
2022-08-12T01:38:02.679Z,76644.31
2022-08-12T01:40:40.469Z,76646.31
2022-08-12T01:43:22.061Z,76656.28
2022-08-12T01:46:43.820Z,76660.25
2022-08-12T01:50:10.900Z,76670.22
2022-08-12T01:53:05.334Z,76686.19
2022-08-12T01:55:46.174Z,76688.19
2022-08-12T01:58:54.283Z,76694.16
2022-08-12T02:01:34.918Z,76700.13
2022-08-12T02:04:55.463Z,76692.16
2022-08-12T02:08:32.574Z,76696.16
2022-08-12T02:11:25.222Z,76704.13
2022-08-12T02:14:44.451Z,76712.09
2022-08-12T02:17:55.410Z,76726.06
2022-08-12T02:20:53.971Z,76728.06
2022-08-12T02:23:27.941Z,76732.03
2022-08-12T02:26:08.926Z,76732.03
2022-08-12T02:28:42.370Z,76738.03
2022-08-12T02:31:15.635Z,76742.00
2022-08-12T02:33:49.468Z,76738.03
2022-08-12T02:36:22.327Z,76736.03
2022-08-12T02:38:57.529Z,76740.03
2022-08-12T02:41:32.538Z,76740.03
2022-08-12T02:44:09.931Z,76742.00
2022-08-12T02:46:50.244Z,76751.97
2022-08-12T02:49:31.416Z,76757.97
2022-08-12T02:52:05.304Z,76767.94
2022-08-12T02:54:40.940Z,76767.94
2022-08-12T02:57:19.865Z,76783.88
2022-08-12T02:59:54.691Z,76777.91
2022-08-12T03:02:30.378Z,76783.88
2022-08-12T03:05:04.776Z,76787.88
2022-08-12T03:07:56.324Z,76787.88
2022-08-12T03:10:40.096Z,76791.88
2022-08-12T03:13:26.139Z,76791.88
2022-08-12T03:15:59.335Z,76795.84
2022-08-12T03:18:33.131Z,76799.84
2022-08-12T03:21:05.804Z,76807.81
2022-08-12T03:23:42.183Z,76811.81
2022-08-12T03:26:15.076Z,76815.78
2022-08-12T03:28:50.545Z,76823.78
2022-08-12T03:31:30.592Z,76823.78
2022-08-12T03:34:08.526Z,76827.75
2022-08-12T03:36:43.055Z,76833.75
2022-08-12T03:39:15.949Z,76827.75
2022-08-12T03:42:17.114Z,76829.75
2022-08-12T03:45:52.291Z,76833.75
2022-08-12T03:48:44.634Z,76841.72
2022-08-12T03:51:36.109Z,76835.72
2022-08-12T03:54:28.427Z,76837.72
2022-08-12T03:57:19.843Z,76839.72
2022-08-12T04:00:11.048Z,76845.69
2022-08-12T04:03:03.006Z,76855.69
2022-08-12T04:05:55.240Z,76853.69
2022-08-12T04:08:29.108Z,76859.66
2022-08-12T04:11:20.341Z,76863.66
2022-08-12T04:13:52.947Z,76867.63
2022-08-12T04:16:25.540Z,76875.63
2022-08-12T04:19:02.588Z,76875.63
2022-08-12T04:21:36.223Z,76879.59
2022-08-12T04:24:10.990Z,76883.59
2022-08-12T04:26:44.124Z,76877.59
2022-08-12T04:29:22.427Z,76877.59
2022-08-12T04:32:15.775Z,76883.59
2022-08-12T04:34:49.879Z,76881.59
2022-08-12T04:37:23.271Z,76881.59
2022-08-12T04:39:58.129Z,76887.59
2022-08-12T04:42:32.527Z,76887.59
2022-08-12T04:45:07.646Z,76887.59
2022-08-12T04:47:40.373Z,76881.59
2022-08-12T04:50:34.913Z,76875.63
2022-08-12T04:53:10.153Z,76873.63
2022-08-12T04:55:45.569Z,76867.63
2022-08-12T04:58:29.683Z,76859.66
2022-08-12T05:01:03.209Z,76859.66
2022-08-12T05:03:46.268Z,76853.69
2022-08-12T05:06:26.714Z,76847.69
2022-08-12T05:09:00.646Z,76843.72
2022-08-12T05:11:33.321Z,76821.78
2022-08-12T05:14:06.983Z,76817.78
2022-08-12T05:16:39.830Z,76803.81
2022-08-12T05:19:18.686Z,76797.84
2022-08-12T05:21:55.400Z,76787.88
2022-08-12T05:24:28.013Z,76767.94
2022-08-12T05:27:00.772Z,76763.94
2022-08-12T05:30:08.354Z,76757.97
2022-08-12T05:32:27.813Z,76753.97
2022-08-12T05:35:07.101Z,76744.00
2022-08-12T05:37:39.778Z,76732.03
2022-08-12T05:40:16.279Z,76726.06
2022-08-12T05:42:48.973Z,76712.09
2022-08-12T05:45:21.488Z,76700.13
2022-08-12T05:47:54.455Z,76692.16
2022-08-12T05:50:27.384Z,76684.19
2022-08-12T05:52:59.934Z,76680.19
2022-08-12T05:55:34.814Z,76668.22
2022-08-12T05:58:10.688Z,76666.25
2022-08-12T06:00:43.202Z,76662.25
2022-08-12T06:03:17.612Z,76650.28
2022-08-12T06:05:55.041Z,76632.34
2022-08-12T06:08:28.320Z,76626.34
2022-08-12T06:11:01.562Z,76618.38
2022-08-12T06:13:52.863Z,76596.44
2022-08-12T06:16:27.246Z,76586.47
2022-08-12T06:18:59.844Z,76584.50
2022-08-12T06:21:33.331Z,76568.53
2022-08-12T06:24:06.013Z,76560.56
2022-08-12T06:26:38.667Z,76546.59
2022-08-12T06:30:08.415Z,76528.66
2022-08-12T06:32:12.170Z,76504.72
2022-08-12T06:35:24.929Z,76490.78
2022-08-12T06:37:57.114Z,76474.81
2022-08-12T06:40:48.575Z,76456.88
2022-08-12T06:43:21.324Z,76436.94
2022-08-12T06:45:54.580Z,76430.94
2022-08-12T06:48:28.733Z,76413.00
2022-08-12T06:51:03.235Z,76397.06
2022-08-12T06:53:36.648Z,76377.13
2022-08-12T06:56:12.525Z,76359.19
2022-08-12T06:58:45.376Z,76349.22
2022-08-12T07:01:18.623Z,76327.28
2022-08-12T07:03:51.308Z,76313.31
2022-08-12T07:06:23.968Z,76295.38
2022-08-12T07:08:56.582Z,76277.44
2022-08-12T07:11:29.439Z,76259.47
2022-08-12T07:14:12.152Z,76245.53
2022-08-12T07:16:57.530Z,76231.56
2022-08-12T07:19:45.019Z,76213.63
2022-08-12T07:22:18.095Z,76197.69
2022-08-12T07:25:10.643Z,76183.72
2022-08-12T07:27:44.336Z,76177.75
2022-08-12T07:30:16.857Z,76163.78
2022-08-12T07:32:51.319Z,76151.81
2022-08-12T07:35:24.189Z,76129.88
2022-08-12T07:37:57.652Z,76121.91
2022-08-12T07:40:30.244Z,76101.97
2022-08-12T07:43:02.794Z,76090.00
2022-08-12T07:45:35.301Z,76070.06
2022-08-12T07:48:07.848Z,76048.16
2022-08-12T07:50:40.489Z,76030.19
2022-08-12T07:53:13.099Z,76016.25
2022-08-12T07:55:46.044Z,76000.28
2022-08-12T07:58:18.590Z,75984.34
2022-08-12T08:00:53.012Z,75970.41
2022-08-12T08:03:25.842Z,75962.41
2022-08-12T08:05:59.402Z,75954.44
2022-08-12T08:08:32.013Z,75934.50
2022-08-12T08:11:23.154Z,75920.56
2022-08-12T08:13:55.736Z,75906.59
2022-08-12T08:16:28.293Z,75892.63
2022-08-12T08:19:00.810Z,75874.69
2022-08-12T08:21:35.387Z,75866.72
2022-08-12T08:24:17.111Z,75854.75
2022-08-12T08:26:52.446Z,75834.81
2022-08-12T08:29:25.935Z,75828.84
2022-08-12T08:32:01.343Z,75806.91
2022-08-12T08:34:53.820Z,75790.97
2022-08-12T08:37:32.493Z,75779.00
2022-08-12T08:40:25.238Z,75769.03
2022-08-12T08:42:57.801Z,75761.06
2022-08-12T08:45:31.341Z,75743.13
2022-08-12T08:48:04.375Z,75731.16
2022-08-12T08:50:37.376Z,75715.22
2022-08-12T08:53:10.743Z,75697.28
2022-08-12T08:56:03.979Z,75679.31
2022-08-12T08:58:40.291Z,75667.38
2022-08-12T09:01:18.531Z,75659.41
2022-08-12T09:05:12.609Z,75647.44
2022-08-12T09:15:41.833Z,75567.69
2022-08-12T09:18:18.622Z,75563.72
2022-08-12T09:21:03.754Z,75549.75
2022-08-12T09:23:57.268Z,75539.78
2022-08-12T09:26:31.842Z,75521.84
2022-08-12T09:29:12.014Z,75509.88
2022-08-12T09:32:03.446Z,75503.91
2022-08-12T09:34:42.993Z,75487.97
2022-08-12T09:37:20.206Z,75479.97
2022-08-12T09:40:05.443Z,75456.06
2022-08-12T09:43:17.372Z,75444.09
2022-08-12T09:46:07.124Z,75428.16
2022-08-12T09:48:56.384Z,75416.19
2022-08-12T09:51:38.331Z,75400.25
2022-08-12T09:54:32.621Z,75376.31
2022-08-12T09:58:46.901Z,75360.38
2022-08-12T10:00:28.033Z,75350.41
2022-08-12T10:03:32.296Z,75342.44
2022-08-12T10:06:26.590Z,75332.47
2022-08-12T10:08:59.488Z,75308.56
2022-08-12T10:12:11.548Z,75292.59
2022-08-12T10:14:49.999Z,75288.63
2022-08-12T10:17:24.056Z,75302.56
2022-08-12T10:19:59.622Z,75300.56
2022-08-12T10:22:37.071Z,75288.63
2022-08-12T10:26:35.087Z,75268.69
2022-08-12T10:28:42.722Z,75250.75
2022-08-12T10:32:01.699Z,75238.78
2022-08-12T10:34:27.719Z,75236.78
2022-08-12T10:37:22.702Z,75228.81
2022-08-12T10:40:02.269Z,75220.84
2022-08-12T10:43:00.467Z,75212.88
2022-08-12T10:45:33.400Z,75222.84
2022-08-12T10:48:21.923Z,75210.88
2022-08-12T10:51:51.939Z,75216.88
2022-08-12T10:54:00.742Z,75180.97
2022-08-12T10:56:36.868Z,75180.97
2022-08-12T10:59:11.632Z,75173.00
2022-08-12T11:04:18.585Z,75184.97
2022-08-12T11:04:49.399Z,75186.97
2022-08-12T11:08:34.164Z,75171.00
2022-08-12T11:10:18.931Z,75145.09
2022-08-12T11:12:59.929Z,75133.16
2022-08-12T11:16:02.835Z,75137.13
2022-08-12T11:18:27.321Z,75093.28
2022-08-12T11:21:00.960Z,75081.31
2022-08-12T11:23:38.307Z,75101.25
2022-08-12T11:26:12.623Z,75119.19
2022-08-12T11:28:45.176Z,75097.25
2022-08-12T11:31:56.046Z,75093.28
2022-08-12T11:34:51.553Z,75091.28
2022-08-12T11:37:25.716Z,75083.31
2022-08-12T11:42:46.193Z,75067.38
2022-08-12T11:45:19.931Z,75049.44
2022-08-12T11:47:54.853Z,75073.34
2022-08-12T11:50:32.387Z,75067.38
2022-08-12T11:53:05.270Z,75063.38
2022-08-12T11:55:57.786Z,75049.44
2022-08-12T11:59:02.983Z,75059.41
2022-08-12T12:01:59.080Z,75041.47
2022-08-12T12:04:28.738Z,75049.44
2022-08-12T12:07:07.127Z,75043.44
2022-08-12T12:09:50.698Z,75019.53
2022-08-12T12:12:25.761Z,74999.59
2022-08-12T12:15:03.111Z,74993.63
2022-08-12T12:17:42.461Z,74965.72
2022-08-12T12:20:15.500Z,74961.72
2022-08-12T12:22:48.158Z,74943.78
2022-08-12T12:25:20.764Z,74925.84
2022-08-12T12:28:36.597Z,74951.75
2022-08-12T12:31:15.053Z,74935.81
2022-08-12T12:33:59.170Z,74913.91
2022-08-12T12:36:31.726Z,74911.91
2022-08-12T12:39:06.563Z,74905.91
2022-08-12T12:42:45.446Z,74923.84
2022-08-12T12:44:41.905Z,74933.81
2022-08-12T12:47:30.107Z,74923.84
2022-08-12T12:50:06.037Z,74921.88
2022-08-12T12:52:38.810Z,74925.84
2022-08-12T12:55:16.185Z,74919.88
2022-08-12T12:57:59.991Z,74903.94
2022-08-12T13:00:33.664Z,74882.00
2022-08-12T13:03:06.183Z,74868.06
2022-08-12T13:05:53.802Z,74838.16
2022-08-12T13:08:35.753Z,74842.13
2022-08-12T13:11:09.102Z,74844.13
2022-08-12T13:14:08.851Z,74824.19
2022-08-12T13:16:36.358Z,74796.31
2022-08-12T13:19:16.418Z,74810.25
2022-08-12T13:22:18.191Z,74808.25
2022-08-12T13:24:56.481Z,74824.19
2022-08-12T13:27:41.423Z,74804.28
2022-08-12T13:30:24.840Z,74794.31
2022-08-12T13:32:58.759Z,74778.38
2022-08-12T13:36:05.930Z,74804.28
2022-08-12T13:38:54.679Z,74798.28
2022-08-12T13:41:33.093Z,74822.22
2022-08-12T13:44:10.610Z,74806.25
2022-08-12T13:46:43.450Z,74782.34
2022-08-12T13:49:17.500Z,74768.41
2022-08-12T13:52:08.585Z,74746.47
2022-08-12T13:54:42.221Z,74738.50
2022-08-12T13:57:16.999Z,74718.56
2022-08-12T13:59:55.434Z,74726.53
2022-08-12T14:02:28.472Z,74714.59
2022-08-12T14:05:02.271Z,74698.63
2022-08-12T14:08:01.970Z,74676.72
2022-08-12T14:10:50.831Z,74668.75
2022-08-12T14:14:05.837Z,74680.69
2022-08-12T14:16:37.557Z,74676.72
2022-08-12T14:19:22.483Z,74686.69
2022-08-12T14:21:59.425Z,74676.72
2022-08-12T14:24:40.782Z,74664.75
2022-08-12T14:27:13.925Z,74668.75
2022-08-12T14:30:04.512Z,74682.69
2022-08-12T14:32:39.112Z,74672.72
2022-08-12T14:35:11.691Z,74664.75
2022-08-12T14:37:56.332Z,74660.78
2022-08-12T14:40:31.189Z,74658.78
2022-08-12T14:43:06.242Z,74634.88
2022-08-12T14:45:46.856Z,74640.84
2022-08-12T14:48:24.498Z,74640.84
2022-08-12T14:52:10.505Z,74654.78
2022-08-12T14:55:10.922Z,74638.84
2022-08-12T14:57:19.509Z,74622.91
2022-08-12T14:59:58.318Z,74610.94
2022-08-12T15:02:31.206Z,74602.97
2022-08-12T15:05:04.354Z,74616.94
2022-08-12T15:07:48.917Z,74630.88
2022-08-12T15:10:31.201Z,74638.84
2022-08-12T15:13:08.239Z,74630.88
2022-08-12T15:15:45.820Z,74622.91
2022-08-12T15:18:22.702Z,74622.91
2022-08-12T15:21:04.367Z,74610.94
2022-08-12T15:23:45.775Z,74618.91
2022-08-12T15:26:34.700Z,74628.88
2022-08-12T15:29:10.403Z,74606.97
2022-08-12T15:31:59.846Z,74599.00
2022-08-12T15:34:38.820Z,74543.19
2022-08-12T15:37:18.309Z,74509.31
2022-08-12T15:39:55.322Z,74509.31
2022-08-12T15:42:34.531Z,74491.38
2022-08-12T15:45:23.847Z,74465.47
2022-08-12T15:48:16.377Z,74447.53
2022-08-12T15:50:53.096Z,74415.63
2022-08-12T15:53:53.416Z,74399.69
2022-08-12T15:56:29.067Z,74367.81
2022-08-12T15:59:02.286Z,74359.84
2022-08-12T16:01:34.984Z,74359.84
2022-08-12T16:04:11.900Z,74351.88
2022-08-12T16:07:04.341Z,74308.03
2022-08-12T16:09:56.610Z,74323.97
2022-08-12T16:12:32.544Z,74323.97
2022-08-12T16:15:08.311Z,74323.97
2022-08-12T16:18:18.174Z,74345.91
2022-08-12T16:20:36.705Z,74355.84
2022-08-12T16:23:26.939Z,74343.91
2022-08-12T16:26:15.193Z,74355.84
2022-08-12T16:28:48.411Z,74345.91
2022-08-12T16:31:23.117Z,74363.81
2022-08-12T16:34:00.194Z,74325.97
2022-08-12T16:36:33.489Z,74316.00
2022-08-12T16:39:06.088Z,74312.00
2022-08-12T16:41:40.061Z,74355.84
2022-08-12T16:44:12.750Z,74349.88
2022-08-12T16:46:58.060Z,74341.91
2022-08-12T16:49:41.767Z,74351.88
2022-08-12T16:52:18.094Z,74333.94
2022-08-12T16:54:52.903Z,74308.03
2022-08-12T16:57:43.046Z,74321.97
2022-08-12T17:00:18.362Z,74329.94
2022-08-12T17:02:58.121Z,74331.94
2022-08-12T17:05:31.619Z,74319.97
2022-08-12T17:08:07.745Z,74325.97
2022-08-12T17:10:40.621Z,74359.84
2022-08-12T17:13:26.251Z,74379.78
2022-08-12T17:16:06.275Z,74369.81
2022-08-12T17:18:57.096Z,74375.78
2022-08-12T17:21:41.632Z,74353.88
2022-08-12T17:24:28.966Z,74357.84
2022-08-12T17:27:15.983Z,74331.94
2022-08-12T17:30:02.374Z,74327.97
2022-08-12T17:32:39.674Z,74319.97
2022-08-12T17:35:29.925Z,74325.97
2022-08-12T17:38:13.305Z,74351.88
2022-08-12T17:40:47.522Z,74343.91
2022-08-12T17:43:54.796Z,74341.91
2022-08-12T17:46:23.654Z,74337.91
2022-08-12T17:48:58.486Z,74312.00
2022-08-12T17:51:34.415Z,74298.06
2022-08-12T17:54:24.289Z,74272.16
2022-08-12T17:56:57.912Z,74300.06
2022-08-12T17:59:48.103Z,74341.91
2022-08-12T18:02:29.905Z,74339.91
2022-08-12T18:05:10.080Z,74341.91
2022-08-12T18:07:44.963Z,74395.72
2022-08-12T18:10:42.953Z,74387.75
2022-08-12T18:13:34.687Z,74415.63
2022-08-12T18:16:12.774Z,74441.56
2022-08-12T18:18:46.148Z,74457.50
2022-08-12T18:21:21.974Z,74483.41
2022-08-12T18:23:58.629Z,74529.25
2022-08-12T18:26:32.543Z,74553.16
2022-08-12T18:29:07.443Z,74577.06
2022-08-12T18:31:44.697Z,74638.84
2022-08-12T18:34:35.397Z,74634.88
2022-08-12T18:37:41.526Z,74662.78
2022-08-12T18:40:23.582Z,74722.56
2022-08-12T18:42:59.292Z,74818.22
2022-08-12T18:45:47.151Z,74889.97
2022-08-12T18:48:31.608Z,74967.72
2022-08-12T18:51:21.946Z,75035.47
2022-08-12T18:54:08.721Z,75095.28
2022-08-12T18:56:42.367Z,75147.09
2022-08-12T19:00:01.780Z,75204.91
2022-08-12T19:02:21.554Z,75234.81
2022-08-12T19:04:57.308Z,75278.66
2022-08-12T19:07:49.454Z,75316.53
2022-08-12T19:10:23.443Z,75352.41
2022-08-12T19:13:23.961Z,75380.31
2022-08-12T19:16:01.305Z,75410.22
2022-08-12T19:18:36.875Z,75438.13
2022-08-12T19:21:16.655Z,75460.06
2022-08-12T19:24:12.605Z,75481.97
2022-08-12T19:26:46.905Z,75509.88
2022-08-12T19:29:39.562Z,75527.81
2022-08-12T19:32:27.058Z,75547.75
2022-08-12T19:38:03.809Z,75589.63
2022-08-12T19:40:42.966Z,75599.59
2022-08-12T19:43:21.767Z,75625.50
2022-08-12T19:45:56.635Z,75645.44
2022-08-12T19:48:33.018Z,75659.41
2022-08-12T19:51:08.851Z,75671.34
2022-08-12T19:53:57.656Z,75689.28
2022-08-12T19:56:32.315Z,75709.22
2022-08-12T19:59:23.402Z,75719.19
2022-08-12T20:02:03.184Z,75733.16
2022-08-12T20:06:03.592Z,75731.16
2022-08-12T20:07:43.979Z,75747.09
2022-08-12T20:10:35.622Z,75759.06
2022-08-12T20:13:18.499Z,75767.03
2022-08-12T20:15:59.939Z,75785.00
2022-08-12T20:18:44.594Z,75790.97
2022-08-12T20:21:25.523Z,75802.94
2022-08-12T20:24:14.296Z,75808.91
2022-08-12T20:26:48.151Z,75818.88
2022-08-12T20:29:23.428Z,75830.84
2022-08-12T20:32:09.444Z,75848.78
2022-08-12T20:34:43.795Z,75846.78
2022-08-12T20:37:16.650Z,75854.75
2022-08-12T20:39:57.557Z,75860.75
2022-08-12T20:42:33.337Z,75856.75
2022-08-12T20:45:07.189Z,75864.72
2022-08-12T20:47:46.638Z,75872.69
2022-08-12T20:50:20.773Z,75884.66
2022-08-12T20:52:53.687Z,75882.66
2022-08-12T20:55:42.540Z,75894.63
2022-08-12T20:58:16.707Z,75896.63
2022-08-12T21:00:52.054Z,75902.59
2022-08-12T21:03:52.778Z,75904.59
2022-08-12T21:06:49.599Z,75910.59
2022-08-12T21:09:29.562Z,75918.56
2022-08-12T21:12:05.990Z,75928.53
2022-08-12T21:15:16.628Z,75942.47
2022-08-12T21:18:10.933Z,75950.47
2022-08-12T21:20:57.216Z,75968.41
2022-08-12T21:23:31.051Z,75974.38
2022-08-12T21:26:16.380Z,75986.34
2022-08-12T21:28:58.359Z,75990.34
2022-08-12T21:32:37.459Z,75996.31
2022-08-12T21:34:31.678Z,76002.28
2022-08-12T21:37:26.850Z,76016.25
2022-08-12T21:39:59.422Z,76026.22
2022-08-12T21:42:46.117Z,76030.19
2022-08-12T21:45:47.638Z,76034.19
2022-08-12T21:48:11.814Z,76044.16
2022-08-12T21:50:45.406Z,76052.13
2022-08-12T21:54:05.988Z,76054.13
2022-08-12T21:56:33.995Z,76064.09
2022-08-12T21:59:14.460Z,76068.09
2022-08-12T22:01:51.411Z,76068.09
2022-08-12T22:04:42.471Z,76078.06
2022-08-12T22:07:28.773Z,76084.03
2022-08-12T22:10:29.314Z,76094.00
2022-08-12T22:13:02.246Z,76103.97
2022-08-12T22:15:34.961Z,76098.00
2022-08-12T22:18:07.902Z,76105.97
2022-08-12T22:20:44.997Z,76113.94
2022-08-12T22:23:21.631Z,76111.94
2022-08-12T22:26:01.364Z,76121.91
2022-08-12T22:29:01.386Z,76123.91
2022-08-12T22:31:34.530Z,76129.88
2022-08-12T22:34:08.308Z,76131.88
2022-08-12T22:36:51.096Z,76147.84
2022-08-12T22:39:26.361Z,76145.84
2022-08-12T22:42:19.720Z,76147.84
2022-08-12T22:45:16.105Z,76157.81
2022-08-12T22:47:55.354Z,76153.81
2022-08-12T22:50:29.500Z,76157.81
2022-08-12T22:53:15.691Z,76161.78
2022-08-12T22:56:06.181Z,76167.78
2022-08-12T22:58:41.455Z,76169.75
2022-08-12T23:01:21.355Z,76165.78
2022-08-12T23:04:15.458Z,76173.75
2022-08-12T23:07:05.168Z,76179.72
2022-08-12T23:09:48.103Z,76183.72
2022-08-12T23:12:46.839Z,76193.69
2022-08-12T23:15:19.945Z,76199.66
2022-08-12T23:17:54.394Z,76203.66
2022-08-12T23:20:27.698Z,76213.63
2022-08-12T23:23:05.851Z,76213.63
2022-08-12T23:25:54.466Z,76227.59
2022-08-12T23:28:46.434Z,76237.56
2022-08-12T23:32:03.549Z,76243.53
2022-08-12T23:34:20.839Z,76249.50
2022-08-12T23:37:07.905Z,76253.50
2022-08-12T23:40:14.792Z,76261.47
2022-08-12T23:42:33.413Z,76277.44
2022-08-12T23:45:08.934Z,76277.44
2022-08-12T23:47:57.988Z,76287.41
2022-08-12T23:50:33.795Z,76295.38
2022-08-12T23:53:17.007Z,76297.38
2022-08-12T23:55:56.962Z,76309.31
2022-08-12T23:58:31.120Z,76321.28
